< < Back
Terminal Aerodrome Forecast


Current Version              Previous Versions:   1  2  3  4  5  6  7  8  9  

Terminal Aerodrome Forecast

653
FTUS42 KGSP 280850 AAB
TAFCLT
TAF AMD
KCLT 280850Z 2809/2906 00000KT 6SM BR BKN009
     FM281400 33004KT P6SM VCSH OVC040
      TEMPO 2815/2819 4SM -TSRA OVC025CB
     FM281900 35004KT P6SM VCSH BKN045
     FM282200 34003KT P6SM BKN100
     FM290000 VRB04KT P6SM BKN250=

Latest METAR

334
SAUS70 KWBC 281100 RRC
MTRCLT
METAR KCLT 281052Z 00000KT 10SM BKN009 OVC140 23/21 A3001 RMK AO2 SLP153
T02280211 $


USA.gov is the U.S. government's official web portal to all federal, state and local government web resources and services.